Time;durP1;ratioP1;P1;durP2;ratioP2;P2;SDS_P1;SDS_P2;PMS_P1;PMS_P2;Temp;Humidity;BMP_temperature;BMP_pressure;BME280_temperature;BME280_humidity;BME280_pressure;Samples;Min_cycle;Max_cycle;Signal;HPM_P1;HPM_P2
2022/11/08 00:01:59;;;;;;;33.05;31.77;;;11.10;95.00;;;;;;4861135;29;20110;-77
2022/11/08 00:04:25;;;;;;;35.10;33.80;;;11.10;95.00;;;;;;4858010;29;20487;-82
2022/11/08 00:15:08;;;;;;;29.60;28.50;;;11.10;95.00;;;;;;4825574;29;20087;-76
2022/11/08 00:17:33;;;;;;;27.98;26.88;;;11.10;95.00;;;;;;4808434;29;20125;-76
2022/11/08 00:19:59;;;;;;;31.73;30.52;;;11.00;94.90;;;;;;4824173;29;20084;-74
2022/11/08 00:22:28;;;;;;;33.40;32.10;;;11.00;94.90;;;;;;4821958;29;20380;-74
2022/11/08 00:24:53;;;;;;;30.45;29.25;;;11.00;95.00;;;;;;4822549;29;20029;-74
2022/11/08 00:27:21;;;;;;;35.08;33.78;;;10.90;94.90;;;;;;4822401;29;20456;-73
2022/11/08 00:29:47;;;;;;;32.70;31.50;;;10.90;94.90;;;;;;4838886;29;20530;-74
2022/11/08 00:32:21;;;;;;;33.13;31.85;;;10.90;94.90;;;;;;4808680;29;20034;-74
2022/11/08 00:34:47;;;;;;;33.88;32.58;;;10.90;94.90;;;;;;4845702;29;20106;-79
2022/11/08 00:37:14;;;;;;;29.95;28.85;;;10.90;95.00;;;;;;4834429;29;20049;-79
2022/11/08 00:39:40;;;;;;;28.65;27.55;;;10.90;95.10;;;;;;4828863;29;20065;-78
2022/11/08 00:42:05;;;;;;;28.17;27.08;;;10.90;95.00;;;;;;4823729;29;20480;-74
2022/11/08 00:44:31;;;;;;;26.95;25.95;;;11.00;95.00;;;;;;4807188;29;20044;-75
2022/11/08 00:46:57;;;;;;;25.40;24.40;;;11.10;95.00;;;;;;4806867;29;20483;-74
2022/11/08 00:49:23;;;;;;;24.88;23.88;;;11.10;94.90;;;;;;4807011;29;20052;-75
2022/11/08 00:51:49;;;;;;;26.55;25.55;;;11.10;94.80;;;;;;4838635;29;20030;-76
2022/11/08 00:54:18;;;;;;;26.27;25.27;;;11.10;94.80;;;;;;4838683;29;20038;-76
2022/11/08 00:56:44;;;;;;;27.58;26.48;;;11.00;94.80;;;;;;4838610;29;20089;-75
2022/11/08 00:59:11;;;;;;;27.70;26.60;;;10.90;94.80;;;;;;4822497;29;20034;-79
2022/11/08 01:01:37;;;;;;;29.30;28.20;;;10.90;94.80;;;;;;4828532;29;20045;-73
2022/11/08 01:04:03;;;;;;;31.63;30.42;;;10.80;94.80;;;;;;4841633;29;20067;-79
2022/11/08 01:06:30;;;;;;;31.95;30.75;;;10.80;94.80;;;;;;4840133;29;20038;-79
2022/11/08 01:08:56;;;;;;;31.40;30.20;;;10.70;94.80;;;;;;4841539;29;20526;-79
2022/11/08 01:11:23;;;;;;;34.00;32.70;;;10.70;94.90;;;;;;4823233;29;20490;-79
2022/11/08 01:13:50;;;;;;;31.90;30.70;;;10.70;94.90;;;;;;4838979;29;20041;-79
2022/11/08 01:16:22;;;;;;;29.27;28.17;;;10.70;94.90;;;;;;4839362;29;20030;-79
2022/11/08 01:18:50;;;;;;;30.65;29.45;;;10.70;94.90;;;;;;4839430;29;20098;-79
2022/11/08 01:21:16;;;;;;;30.80;29.60;;;10.60;94.90;;;;;;4822812;29;20042;-79
2022/11/08 01:23:42;;;;;;;29.45;28.35;;;10.60;94.90;;;;;;4822542;29;20034;-79
2022/11/08 01:26:13;;;;;;;;;;;10.60;94.90;;;;;;4807821;29;20069;-79
2022/11/08 01:28:39;;;;;;;25.58;24.58;;;10.60;94.90;;;;;;4823446;29;19988;-76
2022/11/08 01:31:09;;;;;;;27.00;26.00;;;10.60;94.90;;;;;;4821644;29;20404;-79
2022/11/08 01:33:36;;;;;;;27.52;26.42;;;10.60;94.90;;;;;;4839908;29;20030;-80
2022/11/08 01:36:04;;;;;;;26.67;25.67;;;10.50;94.80;;;;;;4838414;29;20105;-80
2022/11/08 01:38:30;;;;;;;26.25;25.25;;;10.50;94.80;;;;;;4839278;29;20103;-79
2022/11/08 01:40:55;;;;;;;23.60;22.70;;;10.50;94.90;;;;;;4822479;29;20065;-79
2022/11/08 01:43:43;;;;;;;23.70;22.80;;;10.50;94.80;;;;;;4838904;29;20050;-79
2022/11/08 01:46:09;;;;;;;23.90;23.00;;;10.50;94.90;;;;;;4838896;29;20129;-74
2022/11/08 01:48:38;;;;;;;23.50;22.60;;;10.40;94.90;;;;;;4837646;29;20490;-74
2022/11/08 01:51:07;;;;;;;22.88;21.98;;;10.40;94.90;;;;;;4821827;29;20488;-76
2022/11/08 01:53:33;;;;;;;22.30;21.40;;;10.40;94.80;;;;;;4836315;29;20034;-76
2022/11/08 01:56:00;;;;;;;24.98;23.98;;;10.40;94.80;;;;;;4821288;29;20033;-76
2022/11/08 01:58:31;;;;;;;26.08;25.08;;;10.40;94.80;;;;;;4837535;29;20041;-76
2022/11/08 02:01:00;;;;;;;23.60;22.70;;;10.40;94.90;;;;;;4836258;29;20026;-76
2022/11/08 02:03:28;;;;;;;22.80;21.90;;;10.30;94.80;;;;;;4821145;29;20057;-76
2022/11/08 02:05:54;;;;;;;22.63;21.73;;;10.30;94.80;;;;;;4821110;29;20030;-76
2022/11/08 02:08:33;;;;;;;22.27;21.38;;;10.30;94.80;;;;;;4805999;29;20445;-76
2022/11/08 02:11:01;;;;;;;22.05;21.15;;;10.30;94.80;;;;;;4837601;29;20061;-81
2022/11/08 02:13:28;;;;;;;21.08;20.27;;;10.30;94.80;;;;;;4837853;29;20441;-81
2022/11/08 02:15:55;;;;;;;22.38;21.48;;;10.20;94.80;;;;;;4837692;29;20033;-81
2022/11/08 02:18:24;;;;;;;22.65;21.75;;;10.20;94.80;;;;;;4821587;29;20077;-81
2022/11/08 02:20:49;;;;;;;22.40;21.50;;;10.20;94.80;;;;;;4821162;29;20049;-81
2022/11/08 02:23:18;;;;;;;23.65;22.75;;;10.30;94.90;;;;;;4821246;29;20392;-81
2022/11/08 02:25:43;;;;;;;25.50;24.50;;;10.20;94.80;;;;;;4837569;29;20062;-81
2022/11/08 02:28:09;;;;;;;25.67;24.67;;;10.30;94.90;;;;;;4821230;29;20053;-81
2022/11/08 02:30:37;;;;;;;26.63;25.63;;;10.30;94.80;;;;;;4837307;29;20105;-81
2022/11/08 02:33:20;;;;;;;26.58;25.58;;;10.30;94.90;;;;;;4837515;29;20049;-81
2022/11/08 02:35:52;;;;;;;26.63;25.63;;;10.30;94.90;;;;;;4839187;29;20498;-80
2022/11/08 02:38:18;;;;;;;26.33;25.33;;;10.30;94.80;;;;;;4838691;29;20053;-81
2022/11/08 02:40:52;;;;;;;28.52;27.42;;;10.30;94.80;;;;;;4820986;29;20073;-81
2022/11/08 02:43:18;;;;;;;27.60;26.50;;;10.30;94.80;;;;;;4837721;29;20387;-81
2022/11/08 02:45:44;;;;;;;26.40;25.40;;;10.30;94.80;;;;;;4839278;29;20030;-81
2022/11/08 02:48:10;;;;;;;;;;;10.30;94.80;;;;;;4827201;29;20034;-80
2022/11/08 02:50:36;;;;;;;28.60;27.50;;;10.30;94.90;;;;;;4843178;29;20311;-81
2022/11/08 02:53:02;;;;;;;27.40;26.30;;;10.40;94.80;;;;;;4827173;29;20086;-80
2022/11/08 02:55:28;;;;;;;28.10;27.00;;;10.40;94.80;;;;;;4843663;29;20038;-81
2022/11/08 02:57:55;;;;;;;29.00;27.90;;;10.40;94.80;;;;;;4843585;29;20058;-81
2022/11/08 03:00:21;;;;;;;29.90;28.80;;;10.40;94.80;;;;;;4826687;29;20030;-81
2022/11/08 03:02:50;;;;;;;29.75;28.65;;;10.40;94.80;;;;;;4826948;29;20057;-81
2022/11/08 03:05:19;;;;;;;30.83;29.63;;;10.40;94.80;;;;;;4843525;29;20034;-81
2022/11/08 03:07:45;;;;;;;30.83;29.63;;;10.50;94.80;;;;;;4843038;29;20042;-81
2022/11/08 03:10:12;;;;;;;30.50;29.30;;;10.50;94.80;;;;;;4842768;29;20041;-81
2022/11/08 03:12:38;;;;;;;31.23;30.02;;;10.50;94.80;;;;;;4843145;29;20033;-81
2022/11/08 03:15:06;;;;;;;32.53;31.33;;;10.50;94.80;;;;;;4826518;29;20037;-81
2022/11/08 03:17:32;;;;;;;34.45;33.15;;;10.50;94.80;;;;;;4843145;29;20546;-81
2022/11/08 03:19:58;;;;;;;33.75;32.45;;;10.50;94.80;;;;;;4842995;29;20504;-81
2022/11/08 03:22:23;;;;;;;31.38;30.17;;;10.50;94.80;;;;;;4826961;29;20037;-79
2022/11/08 03:24:49;;;;;;;29.55;28.45;;;10.50;94.80;;;;;;4843213;29;20061;-80
2022/11/08 03:27:17;;;;;;;29.63;28.52;;;10.50;94.80;;;;;;4827070;29;20069;-79
2022/11/08 03:29:44;;;;;;;26.75;25.75;;;10.60;94.90;;;;;;4811763;29;20399;-79
2022/11/08 03:32:09;;;;;;;;;;;10.70;94.90;;;;;;4844360;29;20117;-79
2022/11/08 03:34:35;;;;;;;25.48;24.48;;;10.70;94.90;;;;;;4843298;29;19908;-79
2022/11/08 03:37:01;;;;;;;29.00;27.90;;;10.70;94.80;;;;;;4842993;29;20038;-79
2022/11/08 03:39:26;;;;;;;29.92;28.83;;;10.80;94.80;;;;;;4811345;29;20038;-80
2022/11/08 03:41:52;;;;;;;26.52;25.52;;;10.80;94.80;;;;;;4842967;29;20041;-79
2022/11/08 03:44:18;;;;;;;27.25;26.17;;;10.80;94.80;;;;;;4826804;29;20069;-79
2022/11/08 03:46:43;;;;;;;27.40;26.33;;;10.80;94.80;;;;;;4842934;29;20042;-80
2022/11/08 03:49:09;;;;;;;25.95;24.95;;;10.80;94.80;;;;;;4842817;29;20041;-74
2022/11/08 03:51:35;;;;;;;25.63;24.63;;;10.90;94.80;;;;;;4826013;29;20094;-74
2022/11/08 03:54:01;;;;;;;27.00;26.00;;;10.90;94.80;;;;;;4826073;29;20038;-74
2022/11/08 03:56:26;;;;;;;26.23;25.23;;;10.90;94.90;;;;;;4824694;29;20514;-74
2022/11/08 03:58:52;;;;;;;26.38;25.38;;;11.00;94.90;;;;;;4807486;29;20495;-74
2022/11/08 04:01:17;;;;;;;28.13;27.02;;;11.00;94.90;;;;;;4807855;29;20037;-74
2022/11/08 04:03:43;;;;;;;27.30;26.23;;;11.10;94.90;;;;;;4807913;29;20050;-74
2022/11/08 04:06:09;;;;;;;29.10;28.00;;;11.10;94.90;;;;;;4839346;29;20030;-74
2022/11/08 04:08:35;;;;;;;26.60;25.60;;;11.10;94.80;;;;;;4822549;29;20045;-76
2022/11/08 04:15:13;;;;;;;27.63;26.52;;;11.20;94.80;;;;;;4822733;29;20034;-75
2022/11/08 04:16:31;;;;;;;28.20;27.10;;;11.20;94.80;;;;;;4839925;29;20134;-81
2022/11/08 04:21:47;;;;;;;28.35;27.25;;;11.10;94.80;;;;;;4840029;29;20094;-81
2022/11/08 04:24:13;;;;;;;31.70;30.50;;;11.10;94.80;;;;;;4823063;29;20049;-81
2022/11/08 04:26:41;;;;;;;31.20;30.00;;;11.20;94.80;;;;;;4822919;29;20046;-81
2022/11/08 04:29:08;;;;;;;30.73;29.52;;;11.20;94.80;;;;;;4839125;29;20475;-81
2022/11/08 04:31:34;;;;;;;31.15;29.95;;;11.20;94.90;;;;;;4823098;29;20036;-81
2022/11/08 04:33:59;;;;;;;30.20;29.05;;;11.20;94.90;;;;;;4839727;29;20037;-80
2022/11/08 04:36:25;;;;;;;29.67;28.58;;;11.20;94.90;;;;;;4839676;29;20045;-81
2022/11/08 04:38:51;;;;;;;31.25;30.05;;;11.20;94.90;;;;;;4839114;29;20501;-81
2022/11/08 04:41:20;;;;;;;31.10;29.90;;;11.30;95.00;;;;;;4839180;29;20048;-81
2022/11/08 04:43:46;;;;;;;30.33;29.15;;;11.30;95.20;;;;;;4837923;29;20026;-79
2022/11/08 04:46:17;;;;;;;32.15;30.95;;;11.30;94.90;;;;;;4839289;29;20030;-80
2022/11/08 04:48:44;;;;;;;31.17;29.98;;;11.30;94.90;;;;;;4822545;29;20098;-74
2022/11/08 04:51:19;;;;;;;28.75;27.65;;;11.40;94.90;;;;;;4822347;29;20116;-79
2022/11/08 04:53:45;;;;;;;31.88;30.67;;;11.40;95.00;;;;;;4822518;29;20030;-80
2022/11/08 04:56:19;;;;;;;28.35;27.25;;;11.40;95.00;;;;;;4822727;29;20195;-79
2022/11/08 04:58:48;;;;;;;31.55;30.35;;;11.50;95.00;;;;;;4838878;29;20030;-79
2022/11/08 05:01:16;;;;;;;28.67;27.58;;;11.50;94.90;;;;;;4837836;29;20026;-79
2022/11/08 05:03:42;;;;;;;30.13;28.98;;;11.60;95.00;;;;;;4839121;29;20038;-79
2022/11/08 05:06:18;;;;;;;27.50;26.40;;;11.60;95.00;;;;;;4806940;29;20038;-74
2022/11/08 05:08:44;;;;;;;27.23;26.17;;;11.70;95.00;;;;;;4823012;29;20296;-74
2022/11/08 05:11:12;;;;;;;28.67;27.58;;;11.70;95.00;;;;;;4822046;29;20104;-74
2022/11/08 05:13:39;;;;;;;25.80;24.80;;;11.80;95.00;;;;;;4836926;29;20026;-75
2022/11/08 05:16:07;;;;;;;30.08;28.95;;;11.80;95.00;;;;;;4838136;29;20078;-74
2022/11/08 05:18:33;;;;;;;32.72;31.52;;;11.80;94.90;;;;;;4821771;29;20030;-74
2022/11/08 05:23:45;;;;;;;35.58;34.28;;;11.80;94.80;;;;;;4838749;29;20041;-74
2022/11/08 05:26:11;;;;;;;35.40;34.10;;;11.80;94.80;;;;;;4821687;29;20479;-75
2022/11/08 05:28:39;;;;;;;35.55;34.25;;;11.70;94.80;;;;;;4821932;29;20500;-79
2022/11/08 05:31:05;;;;;;;36.63;35.22;;;11.70;94.80;;;;;;4838579;29;20049;-79
2022/11/08 05:33:31;;;;;;;;;;;11.70;94.80;;;;;;4839274;29;20050;-79
2022/11/08 05:36:00;;;;;;;34.92;33.63;;;11.70;94.80;;;;;;4838607;29;19912;-79
2022/11/08 05:38:26;;;;;;;38.15;36.75;;;11.60;94.80;;;;;;4838715;29;20026;-79
2022/11/08 05:40:52;;;;;;;34.88;33.58;;;11.60;94.80;;;;;;4821517;29;20050;-74
2022/11/08 05:43:17;;;;;;;33.80;32.50;;;11.60;94.80;;;;;;4821323;29;20041;-74
2022/11/08 05:45:44;;;;;;;33.08;31.83;;;11.50;94.80;;;;;;4821351;29;20086;-74
2022/11/08 05:48:10;;;;;;;31.73;30.52;;;11.50;94.80;;;;;;4837638;29;20034;-74
2022/11/08 05:50:36;;;;;;;30.63;29.42;;;11.50;94.80;;;;;;4806037;29;20047;-74
2022/11/08 05:53:01;;;;;;;31.05;29.85;;;11.50;94.90;;;;;;4837639;29;20068;-74
2022/11/08 05:55:27;;;;;;;30.67;29.48;;;11.50;94.90;;;;;;4837515;29;20034;-74
2022/11/08 05:57:53;;;;;;;31.83;30.63;;;11.50;94.90;;;;;;4837389;29;20493;-74
2022/11/08 06:00:19;;;;;;;31.50;30.30;;;11.40;94.80;;;;;;4821332;29;20399;-74
2022/11/08 06:02:45;;;;;;;30.02;28.92;;;11.40;94.80;;;;;;4836114;29;20053;-75
2022/11/08 06:05:11;;;;;;;31.42;30.23;;;11.40;94.90;;;;;;4837458;29;20398;-76
2022/11/08 06:07:37;;;;;;;32.60;31.40;;;11.40;94.90;;;;;;4805945;29;20141;-75
2022/11/08 06:10:04;;;;;;;29.85;28.75;;;11.40;94.90;;;;;;4854742;29;20415;-80
2022/11/08 06:12:30;;;;;;;29.65;28.55;;;11.40;95.00;;;;;;4855381;29;20041;-80
2022/11/08 06:14:55;;;;;;;26.05;25.05;;;11.50;95.00;;;;;;4839554;29;20030;-80
2022/11/08 06:17:21;;;;;;;25.13;24.13;;;11.50;95.00;;;;;;4855206;29;20038;-80
2022/11/08 06:19:47;;;;;;;22.75;21.85;;;11.60;95.00;;;;;;4838962;29;20145;-80
2022/11/08 06:22:12;;;;;;;23.63;22.73;;;11.70;95.00;;;;;;4839542;29;20038;-80
2022/11/08 06:24:38;;;;;;;24.25;23.27;;;11.70;95.00;;;;;;4856289;29;20037;-80
2022/11/08 06:27:04;;;;;;;23.90;23.00;;;11.80;95.00;;;;;;4855443;29;20074;-80
2022/11/08 06:29:30;;;;;;;23.67;22.77;;;11.80;95.00;;;;;;4856618;29;20038;-80
2022/11/08 06:31:57;;;;;;;25.42;24.42;;;11.80;95.00;;;;;;4856775;29;20039;-80
2022/11/08 06:34:23;;;;;;;24.30;23.35;;;11.80;95.10;;;;;;4854922;29;20493;-80
2022/11/08 06:36:49;;;;;;;;;;;11.70;94.90;;;;;;4855372;29;20045;-80
2022/11/08 06:39:15;;;;;;;26.67;25.67;;;11.70;94.90;;;;;;4839511;29;20410;-74
2022/11/08 06:41:40;;;;;;;26.40;25.40;;;11.70;94.90;;;;;;4856331;29;20034;-80
2022/11/08 06:44:06;;;;;;;30.83;29.63;;;11.60;94.90;;;;;;4856005;29;20038;-80
2022/11/08 06:46:32;;;;;;;32.60;31.40;;;11.60;94.90;;;;;;4855950;29;20038;-80
2022/11/08 06:48:57;;;;;;;32.58;31.38;;;11.50;94.90;;;;;;4854411;29;20053;-81
2022/11/08 06:51:23;;;;;;;33.95;32.65;;;11.50;94.90;;;;;;4855374;29;20506;-75
2022/11/08 06:53:49;;;;;;;33.95;32.65;;;11.40;94.90;;;;;;4854406;29;20125;-79
2022/11/08 06:56:14;;;;;;;35.50;34.20;;;11.40;95.00;;;;;;4839599;29;20033;-79
2022/11/08 06:58:40;;;;;;;36.50;35.10;;;11.40;95.20;;;;;;4854465;29;20030;-79
2022/11/08 07:01:09;;;;;;;36.08;34.67;;;11.40;95.00;;;;;;4856678;29;20037;-78
2022/11/08 07:03:34;;;;;;;35.95;34.55;;;11.40;95.00;;;;;;4859273;29;20061;-81
2022/11/08 07:06:02;;;;;;;35.92;34.55;;;11.40;95.10;;;;;;4839369;29;20068;-80
2022/11/08 07:08:28;;;;;;;36.03;34.63;;;11.40;95.10;;;;;;4856618;29;20137;-80
2022/11/08 07:10:54;;;;;;;37.00;35.60;;;11.50;95.10;;;;;;4855056;29;20072;-71
2022/11/08 07:13:20;;;;;;;36.42;35.03;;;11.50;95.30;;;;;;4854297;29;20038;-80
2022/11/08 07:15:49;;;;;;;37.80;36.40;;;11.50;95.00;;;;;;4853819;29;20117;-80
2022/11/08 07:18:16;;;;;;;39.15;37.65;;;11.50;95.00;;;;;;4854987;29;20033;-74
2022/11/08 07:20:42;;;;;;;40.05;38.55;;;11.50;94.90;;;;;;4853562;29;20026;-75
2022/11/08 07:23:09;;;;;;;40.03;38.53;;;11.50;94.90;;;;;;4838438;29;20038;-76
2022/11/08 07:25:35;;;;;;;41.15;39.63;;;11.50;94.90;;;;;;4855398;29;20402;-79
2022/11/08 07:28:04;;;;;;;41.88;40.28;;;11.40;94.90;;;;;;4857704;29;20085;-80
2022/11/08 07:30:30;;;;;;;42.03;40.45;;;11.30;94.90;;;;;;4858570;29;20514;-79
2022/11/08 07:32:57;;;;;;;42.65;41.05;;;11.30;94.90;;;;;;4861204;29;20113;-79
2022/11/08 07:35:24;;;;;;;43.33;41.72;;;11.20;94.90;;;;;;4862815;29;20032;-80
2022/11/08 07:37:50;;;;;;;42.33;40.72;;;11.20;94.90;;;;;;4862103;29;20415;-79
2022/11/08 07:40:15;;;;;;;42.97;41.38;;;11.10;94.90;;;;;;4861433;29;20068;-78
2022/11/08 07:42:42;;;;;;;42.83;41.22;;;11.10;95.00;;;;;;4860156;29;20040;-79
2022/11/08 07:45:08;;;;;;;;;;;11.10;95.00;;;;;;4843062;29;20454;-80
2022/11/08 07:47:33;;;;;;;42.55;40.95;;;11.10;95.00;;;;;;4859034;29;19995;-80
2022/11/08 07:49:59;;;;;;;43.15;41.55;;;11.10;94.90;;;;;;4875031;29;20452;-80
2022/11/08 07:52:25;;;;;;;42.45;40.85;;;11.10;95.00;;;;;;4858912;29;20471;-80
2022/11/08 07:54:51;;;;;;;44.00;42.30;;;11.00;95.00;;;;;;4860524;29;20049;-79
2022/11/08 07:57:17;;;;;;;44.63;42.92;;;11.00;94.90;;;;;;4861021;29;20112;-79
2022/11/08 07:59:43;;;;;;;41.35;39.75;;;11.00;94.90;;;;;;4860348;29;20053;-79
2022/11/08 08:02:10;;;;;;;42.80;41.20;;;11.00;95.00;;;;;;4859746;29;20041;-75
2022/11/08 08:04:36;;;;;;;44.30;42.60;;;11.00;95.00;;;;;;4857607;29;20029;-81
2022/11/08 08:07:01;;;;;;;42.10;40.50;;;11.00;95.00;;;;;;4858706;29;20447;-81
2022/11/08 08:09:27;;;;;;;39.63;38.13;;;11.00;95.00;;;;;;4857212;29;20057;-80
2022/11/08 08:11:53;;;;;;;37.03;35.63;;;11.00;95.00;;;;;;4842711;29;20044;-81
2022/11/08 08:14:18;;;;;;;36.55;35.15;;;11.00;95.00;;;;;;4858904;29;20037;-80
2022/11/08 08:16:44;;;;;;;35.55;34.20;;;11.00;95.00;;;;;;4857265;29;20092;-75
2022/11/08 08:19:10;;;;;;;35.78;34.38;;;11.00;95.00;;;;;;4856373;29;20399;-75
2022/11/08 08:21:36;;;;;;;35.40;34.10;;;11.00;95.00;;;;;;4856528;29;20100;-75
2022/11/08 08:24:02;;;;;;;35.83;34.45;;;11.00;95.00;;;;;;4858092;29;20037;-75
2022/11/08 08:26:27;;;;;;;35.35;34.05;;;11.00;95.00;;;;;;4844589;29;20178;-73
2022/11/08 08:28:53;;;;;;;33.42;32.13;;;11.10;95.00;;;;;;4857276;29;20054;-80
2022/11/08 08:31:19;;;;;;;32.65;31.45;;;11.10;95.10;;;;;;4862045;29;20061;-79
2022/11/08 08:33:45;;;;;;;30.45;29.25;;;11.10;95.10;;;;;;4861957;29;20045;-80
2022/11/08 08:36:11;;;;;;;29.98;28.83;;;11.10;95.10;;;;;;4859901;29;20136;-80
2022/11/08 08:38:37;;;;;;;29.55;28.45;;;11.20;95.10;;;;;;4860269;29;20052;-79
2022/11/08 08:41:03;;;;;;;24.88;23.88;;;11.20;95.10;;;;;;4857645;29;20044;-81
2022/11/08 08:43:32;;;;;;;24.35;23.38;;;11.30;95.10;;;;;;4857357;29;20033;-81
2022/11/08 08:46:03;;;;;;;21.45;20.55;;;11.40;95.20;;;;;;4857940;29;20060;-81
2022/11/08 08:48:29;;;;;;;20.00;19.20;;;11.40;95.20;;;;;;4857631;29;20041;-81
2022/11/08 08:50:55;;;;;;;18.65;17.85;;;11.50;95.20;;;;;;4858264;29;20109;-80
2022/11/08 08:53:21;;;;;;;;;;;11.60;95.20;;;;;;4859825;29;20491;-81
2022/11/08 08:55:47;;;;;;;13.38;12.77;;;11.70;95.20;;;;;;4858862;29;19912;-80
2022/11/08 08:58:13;;;;;;;10.07;9.57;;;11.80;95.30;;;;;;4844110;29;20036;-80
2022/11/08 09:00:39;;;;;;;;;;;12.30;96.10;;;;;;4862771;29;20037;-81
2022/11/08 09:03:07;;;;;;;5.32;5.03;;;13.10;96.60;;;;;;4858150;29;19912;-81
2022/11/08 09:05:33;;;;;;;4.20;3.90;;;13.90;96.30;;;;;;4859768;29;20061;-81
2022/11/08 09:07:59;;;;;;;3.70;3.40;;;14.70;96.20;;;;;;4867082;29;20070;-82
2022/11/08 09:10:24;;;;;;;;;;;15.40;95.90;;;;;;4866317;29;20076;-81
2022/11/08 09:12:50;;;;;;;2.40;2.20;;;15.90;95.70;;;;;;4850470;29;19973;-81
2022/11/08 09:15:16;;;;;;;2.15;1.98;;;16.30;95.50;;;;;;4869812;29;20078;-80
2022/11/08 09:17:42;;;;;;;1.42;1.33;;;16.70;95.50;;;;;;4854214;29;20478;-81
2022/11/08 09:20:09;;;;;;;0.90;0.90;;;17.20;95.50;;;;;;4866002;29;20707;-80
2022/11/08 09:22:36;;;;;;;1.35;1.25;;;17.50;95.10;;;;;;4840802;29;20056;-81
2022/11/08 09:25:02;;;;;;;0.60;0.60;;;17.50;94.90;;;;;;4868313;29;20089;-80
2022/11/08 09:27:30;;;;;;;0.55;0.55;;;17.70;95.20;;;;;;4868077;29;20033;-79
2022/11/08 09:29:56;;;;;;;0.30;0.30;;;18.00;95.40;;;;;;4867832;29;20036;-80
2022/11/08 09:32:23;;;;;;;0.20;0.20;;;18.40;95.40;;;;;;4868226;29;20394;-80
2022/11/08 09:34:58;;;;;;;0.00;0.00;;;18.60;95.30;;;;;;4851122;29;20025;-81
2022/11/08 09:37:25;;;;;;;0.20;0.20;;;18.60;94.80;;;;;;4864725;29;20029;-76
2022/11/08 09:39:51;;;;;;;0.10;0.10;;;18.50;94.90;;;;;;4854313;29;20037;-76
2022/11/08 09:42:21;;;;;;;0.10;0.10;;;18.60;95.30;;;;;;4859133;29;20037;-76
2022/11/08 09:45:05;;;;;;;0.10;0.10;;;18.90;95.20;;;;;;4850156;29;20081;-76
2022/11/08 09:47:37;;;;;;;0.10;0.10;;;18.70;94.70;;;;;;4848961;29;20057;-76
2022/11/08 09:50:34;;;;;;;0.00;0.00;;;18.60;94.90;;;;;;4850994;29;20029;-76
2022/11/08 09:53:25;;;;;;;0.00;0.00;;;18.30;94.70;;;;;;4849734;29;20100;-76
2022/11/08 09:56:10;;;;;;;0.10;0.10;;;17.50;94.20;;;;;;4866477;29;20559;-76
2022/11/08 09:58:44;;;;;;;0.20;0.20;;;16.90;94.50;;;;;;4855919;29;20502;-75
2022/11/08 10:01:11;;;;;;;0.20;0.20;;;16.50;94.70;;;;;;4865370;29;20018;-75
2022/11/08 10:03:37;;;;;;;0.20;0.20;;;16.30;95.10;;;;;;4867626;29;20037;-73
2022/11/08 10:06:39;;;;;;;0.30;0.30;;;16.20;95.20;;;;;;4862115;29;20021;-75
2022/11/08 10:09:17;;;;;;;0.20;0.20;;;16.50;95.90;;;;;;4862197;29;20124;-75
2022/11/08 10:12:12;;;;;;;0.10;0.10;;;17.20;96.30;;;;;;4864398;29;20394;-75
2022/11/08 10:14:46;;;;;;;0.10;0.10;;;17.90;96.00;;;;;;4849781;29;20081;-74
2022/11/08 10:17:39;;;;;;;0.10;0.10;;;18.50;96.00;;;;;;4864339;29;20074;-75
2022/11/08 10:20:42;;;;;;;0.10;0.10;;;19.10;95.90;;;;;;4860623;29;20483;-75
2022/11/08 10:23:55;;;;;;;0.08;0.08;;;19.70;95.90;;;;;;4852682;29;20617;-74
2022/11/08 10:26:28;;;;;;;0.00;0.00;;;20.40;96.00;;;;;;4849344;29;20041;-75
2022/11/08 10:29:05;;;;;;;0.98;0.47;;;20.90;95.70;;;;;;4849490;29;20026;-78
2022/11/08 10:31:34;;;;;;;0.00;0.00;;;21.30;95.90;;;;;;4864146;29;20033;-75
2022/11/08 10:34:13;;;;;;;0.00;0.00;;;21.40;95.30;;;;;;4865494;29;20029;-75
2022/11/08 10:36:41;;;;;;;0.00;0.00;;;21.20;95.10;;;;;;4866869;29;20025;-75
2022/11/08 10:39:23;;;;;;;0.00;0.00;;;21.20;95.50;;;;;;4864455;29;20052;-76
2022/11/08 10:42:10;;;;;;;0.00;0.00;;;21.50;95.80;;;;;;4865022;29;20036;-74
2022/11/08 10:44:37;;;;;;;0.00;0.00;;;21.70;95.40;;;;;;4864223;29;20029;-77
2022/11/08 10:47:06;;;;;;;0.00;0.00;;;21.80;95.30;;;;;;4863503;29;20165;-75
2022/11/08 10:49:42;;;;;;;0.00;0.00;;;21.80;95.30;;;;;;4863197;29;20386;-76
2022/11/08 10:52:10;;;;;;;0.00;0.00;;;21.60;94.90;;;;;;4850727;29;20359;-76
2022/11/08 10:54:56;;;;;;;0.00;0.00;;;21.20;94.70;;;;;;4848427;29;20057;-76
2022/11/08 10:57:37;;;;;;;0.00;0.00;;;20.50;94.30;;;;;;4869673;29;20096;-76
2022/11/08 11:00:21;;;;;;;0.00;0.00;;;19.60;94.00;;;;;;4873539;29;20021;-76
2022/11/08 11:02:54;;;;;;;0.00;0.00;;;18.70;94.20;;;;;;4857865;29;20044;-74
2022/11/08 11:05:23;;;;;;;0.00;0.00;;;18.00;94.30;;;;;;4874870;29;20040;-76
2022/11/08 11:08:24;;;;;;;0.00;0.00;;;17.40;94.50;;;;;;4878364;29;20036;-76
2022/11/08 11:10:50;;;;;;;0.00;0.00;;;16.90;94.70;;;;;;4806390;29;20058;-76
2022/11/08 11:13:20;;;;;;;0.03;0.03;;;16.60;94.80;;;;;;4852029;29;20048;-77
2022/11/08 11:15:55;;;;;;;0.00;0.00;;;16.30;94.80;;;;;;4851439;29;20029;-77
2022/11/08 11:18:30;;;;;;;0.10;0.10;;;16.00;94.90;;;;;;4843889;29;20116;-76
2022/11/08 11:21:05;;;;;;;0.10;0.10;;;15.80;94.80;;;;;;4858748;29;20029;-77
2022/11/08 11:23:33;;;;;;;0.20;0.20;;;15.60;94.90;;;;;;4879032;29;20108;-76
2022/11/08 11:25:59;;;;;;;0.22;0.22;;;15.40;94.80;;;;;;4861480;29;20473;-77
2022/11/08 11:28:25;;;;;;;0.40;0.40;;;15.20;94.80;;;;;;4846327;29;20095;-73
2022/11/08 11:31:15;;;;;;;0.20;0.20;;;15.20;95.10;;;;;;4846334;29;20037;-77
2022/11/08 11:33:47;;;;;;;0.20;0.20;;;15.60;95.90;;;;;;4878899;29;20025;-75
2022/11/08 11:36:21;;;;;;;0.08;0.08;;;16.40;96.40;;;;;;4878127;29;20056;-75
2022/11/08 11:39:26;;;;;;;0.10;0.10;;;17.20;96.40;;;;;;4877935;29;20037;-74
2022/11/08 11:42:17;;;;;;;0.10;0.10;;;17.50;95.70;;;;;;4858883;29;20093;-76
2022/11/08 11:45:12;;;;;;;0.10;0.10;;;17.80;95.40;;;;;;4877634;29;20044;-76
2022/11/08 11:47:48;;;;;;;0.00;0.00;;;18.10;95.60;;;;;;4869157;29;20569;-75
2022/11/08 11:50:33;;;;;;;0.00;0.00;;;18.50;95.70;;;;;;4860943;29;20114;-77
2022/11/08 11:53:13;;;;;;;0.00;0.00;;;18.90;95.70;;;;;;4877547;29;20070;-75
2022/11/08 11:55:54;;;;;;;0.00;0.00;;;19.20;95.50;;;;;;4877412;29;20474;-75
2022/11/08 11:58:29;;;;;;;0.00;0.00;;;19.30;95.30;;;;;;4877255;29;20112;-73
2022/11/08 12:01:36;;;;;;;0.00;0.00;;;19.10;95.00;;;;;;4877618;29;20025;-75
2022/11/08 12:04:24;;;;;;;0.00;0.00;;;18.90;95.00;;;;;;4859983;29;20033;-74
2022/11/08 12:06:50;;;;;;;0.03;0.03;;;18.50;94.90;;;;;;4859217;29;20116;-77
2022/11/08 12:09:21;;;;;;;0.00;0.00;;;18.40;95.50;;;;;;4842385;29;20551;-78
2022/11/08 12:12:17;;;;;;;0.00;0.00;;;18.60;96.00;;;;;;4842009;29;20053;-76
2022/11/08 12:15:01;;;;;;;0.00;0.00;;;18.90;96.00;;;;;;4857338;29;20068;-77
2022/11/08 12:17:58;;;;;;;0.00;0.00;;;19.20;95.70;;;;;;4858449;29;20053;-76
2022/11/08 12:21:01;;;;;;;0.00;0.00;;;19.20;95.40;;;;;;4858135;29;20069;-77
2022/11/08 12:23:44;;;;;;;0.00;0.00;;;19.10;95.30;;;;;;4849200;29;20050;-75
2022/11/08 12:26:14;;;;;;;0.00;0.00;;;18.80;94.80;;;;;;4857996;29;20503;-77
2022/11/08 12:28:54;;;;;;;0.00;0.00;;;18.60;95.30;;;;;;4857842;29;20025;-76
2022/11/08 12:31:30;;;;;;;0.00;0.00;;;18.80;95.70;;;;;;4857248;29;20034;-80
2022/11/08 12:34:20;;;;;;;0.00;0.00;;;18.70;95.10;;;;;;4859007;29;20059;-77
2022/11/08 12:37:23;;;;;;;0.00;0.00;;;18.10;94.50;;;;;;4857799;29;20021;-79
2022/11/08 12:40:15;;;;;;;0.00;0.00;;;17.50;94.40;;;;;;4858162;29;20033;-75
2022/11/08 12:43:07;;;;;;;0.00;0.00;;;17.00;94.40;;;;;;4858154;29;20048;-77
2022/11/08 12:45:59;;;;;;;0.00;0.00;;;16.70;94.70;;;;;;4857495;29;20033;-78
2022/11/08 12:49:02;;;;;;;0.00;0.00;;;16.50;94.80;;;;;;4858784;29;20051;-77
2022/11/08 12:51:34;;;;;;;0.00;0.00;;;16.40;94.90;;;;;;4858605;29;20079;-76
2022/11/08 12:54:21;;;;;;;0.00;0.00;;;16.50;95.00;;;;;;4857609;29;20506;-76
2022/11/08 12:56:48;;;;;;;0.00;0.00;;;16.40;94.70;;;;;;4858921;29;20066;-75
2022/11/08 12:59:17;;;;;;;0.00;0.00;;;16.20;94.60;;;;;;4856744;29;20097;-76
2022/11/08 13:01:43;;;;;;;0.00;0.00;;;16.20;94.60;;;;;;4860798;29;20402;-77
2022/11/08 13:04:27;;;;;;;;;;;16.00;94.60;;;;;;4867032;29;20098;-76
2022/11/08 13:07:04;;;;;;;0.00;0.00;;;15.90;94.50;;;;;;4859507;29;19912;-76
2022/11/08 13:09:46;;;;;;;0.00;0.00;;;15.60;94.40;;;;;;4865475;29;20042;-75